Terminal Aerodrome Forecast
Issued by NWS

Home | Current Version | Previous Version | Text Only | Print | Product List | Glossary On
Versions: 1 2 3 4 5 6 7 8 9 10 11 12 13 14 15 16 17 18 19 20 21
000
FTUS41 KBOX 160539
TAFACK
TAF
KACK 160539Z 1606/1706 26018KT 5SM -RA BR OVC008
     FM160800 31021G28KT 5SM -RA OVC010
     FM161100 33022G30KT 5SM -RA OVC015
     FM161300 34023G30KT P6SM BKN150
     FM162100 36019KT P6SM SKC=

USA.gov is the U.S. government's official web portal to all federal, state and local government web resources and services.